Mission Field Livingston US
ICAO: KLVM
IATA: LVM
Category: Medium
Scheduled Services: No

Elevation: 4660 ft
TransAlt. 18000 ft.

Airport Communications:
ASOS:135.275
GREAT FALLS RDO:122.2
CTAF/UNICOM:123

KLVM Zoom In..

Runways:

(A) RW 04 length 5701 ft width 75 ft
---- / hdg 39

(B) RW 08 length 3762 ft width 125 ft
---- / hdg 78

(C) RW 13 length 2724 ft width 120 ft
---- / hdg 132

(D) RW 22 length 5701 ft width 75 ft
---- / hdg 219

(E) RW 26 length 3762 ft width 125 ft
---- / hdg 258

(F) RW 31 length 2724 ft width 120 ft
---- / hdg 312

Location; KLVM
Day. 24 / Time. 12.53 Zulu
* Altimeter: 29.96
* Temperature: 14° c. 57.2°f.
* Wind from: 220° Speed 25 kn with Gusts up to 31 kn.
Dewpoint: 07° c.
Visibility: 10 Statute Miles.
Clouds: Broken 9000 ft.

KLVM 241253Z AUTO 22025G31KT 10SM BKN090 14/07 A2996 RMK AO2 PK WND 21031/1253 SLP120 T01440072


Wind From 220°
Speed 25 kn.

 
 
jpsmedia.com for Web Design SOUNDCLOUD worldairports.se 2018   terms of use